createdAt,value
2019-01-27T00:01:50.514Z,2.93
2019-01-27T00:04:23.451Z,2.03
2019-01-27T00:06:55.300Z,2.93
2019-01-27T00:09:28.484Z,2.67
2019-01-27T00:12:01.940Z,2.30
2019-01-27T00:14:35.048Z,2.47
2019-01-27T00:17:08.018Z,2.57
2019-01-27T00:19:42.698Z,2.60
2019-01-27T00:22:15.751Z,2.13
2019-01-27T00:24:49.858Z,2.80
2019-01-27T00:27:25.694Z,1.80
2019-01-27T00:30:03.236Z,4.13
2019-01-27T00:32:34.876Z,3.00
2019-01-27T00:35:08.071Z,1.93
2019-01-27T00:37:40.639Z,2.27
2019-01-27T00:40:14.050Z,2.63
2019-01-27T00:42:46.046Z,3.87
2019-01-27T00:45:18.403Z,2.97
2019-01-27T00:47:50.160Z,2.30
2019-01-27T00:50:22.310Z,4.70
2019-01-27T00:52:54.955Z,2.90
2019-01-27T00:55:28.600Z,1.53
2019-01-27T00:58:02.448Z,4.50
2019-01-27T01:00:35.172Z,1.83
2019-01-27T01:03:07.471Z,3.07
2019-01-27T01:05:39.142Z,1.77
2019-01-27T01:08:13.487Z,1.73
2019-01-27T01:10:59.423Z,1.70
2019-01-27T01:13:31.621Z,2.07
2019-01-27T01:16:05.338Z,2.83
2019-01-27T01:18:37.443Z,2.63
2019-01-27T01:21:09.340Z,2.60
2019-01-27T01:23:41.076Z,1.50
2019-01-27T01:26:12.823Z,1.63
2019-01-27T01:28:44.398Z,1.53
2019-01-27T01:31:16.168Z,2.43
2019-01-27T01:33:57.434Z,2.23
2019-01-27T01:36:30.783Z,1.83
2019-01-27T01:39:04.160Z,1.50
2019-01-27T01:41:35.919Z,1.33
2019-01-27T01:44:16.106Z,2.33
2019-01-27T01:46:49.723Z,1.40
2019-01-27T01:49:24.535Z,1.50
2019-01-27T01:51:59.998Z,1.60
2019-01-27T01:54:33.176Z,1.80
2019-01-27T01:57:09.104Z,1.70
2019-01-27T01:59:45.065Z,1.53
2019-01-27T02:02:19.616Z,2.90
2019-01-27T02:04:53.801Z,1.60
2019-01-27T02:07:29.022Z,1.50
2019-01-27T02:10:03.296Z,2.93
2019-01-27T02:12:37.377Z,1.30
2019-01-27T02:15:50.354Z,2.47
2019-01-27T02:18:25.747Z,2.47
2019-01-27T02:21:00.296Z,1.60
2019-01-27T02:23:40.624Z,1.40
2019-01-27T02:26:14.650Z,1.20
2019-01-27T02:28:48.890Z,1.60
2019-01-27T02:31:30.101Z,1.90
2019-01-27T02:34:03.863Z,1.60
2019-01-27T02:36:35.902Z,1.23
2019-01-27T02:39:10.626Z,1.20
2019-01-27T02:41:43.622Z,1.73
2019-01-27T02:44:17.147Z,1.40
2019-01-27T02:46:49.990Z,1.27
2019-01-27T02:49:22.105Z,2.57
2019-01-27T02:51:53.791Z,1.60
2019-01-27T02:54:25.708Z,1.77
2019-01-27T02:56:57.326Z,1.40
2019-01-27T02:59:28.967Z,2.23
2019-01-27T03:02:01.003Z,1.87
2019-01-27T03:04:32.622Z,1.60
2019-01-27T03:07:19.432Z,1.50
2019-01-27T03:09:51.128Z,1.43
2019-01-27T03:12:22.919Z,1.43
2019-01-27T03:14:57.688Z,1.30
2019-01-27T03:17:28.095Z,1.60
2019-01-27T03:19:59.743Z,1.40
2019-01-27T03:22:31.402Z,1.70
2019-01-27T03:25:03.878Z,1.77
2019-01-27T03:27:35.508Z,1.40
2019-01-27T03:30:15.520Z,1.30
2019-01-27T03:32:47.466Z,1.40
2019-01-27T03:35:19.119Z,1.40
2019-01-27T03:37:50.853Z,1.83
2019-01-27T03:40:23.355Z,1.50
2019-01-27T03:42:56.501Z,1.50
2019-01-27T03:45:28.130Z,1.77
2019-01-27T03:47:59.805Z,1.37
2019-01-27T03:50:31.487Z,1.77
2019-01-27T03:53:03.161Z,1.20
2019-01-27T03:55:35.579Z,1.50
2019-01-27T03:58:07.261Z,1.30
2019-01-27T04:00:38.990Z,1.20
2019-01-27T04:03:10.678Z,1.30
2019-01-27T04:05:42.337Z,1.50
2019-01-27T04:08:15.199Z,1.63
2019-01-27T04:10:46.756Z,1.47
2019-01-27T04:13:18.862Z,1.73
2019-01-27T04:15:50.620Z,1.67
2019-01-27T04:18:22.304Z,2.17
2019-01-27T04:20:53.891Z,1.63
2019-01-27T04:23:25.631Z,1.40
2019-01-27T04:25:57.321Z,1.80
2019-01-27T04:28:29.313Z,1.70
2019-01-27T04:31:01.035Z,1.40
2019-01-27T04:33:33.032Z,1.30
2019-01-27T04:36:04.678Z,1.70
2019-01-27T04:38:36.310Z,1.40
2019-01-27T04:41:07.973Z,1.40
2019-01-27T04:43:40.285Z,2.13
2019-01-27T04:46:12.010Z,1.60
2019-01-27T04:48:43.651Z,1.93
2019-01-27T04:51:15.483Z,1.63
2019-01-27T04:53:48.457Z,3.10
2019-01-27T04:56:20.517Z,1.87
2019-01-27T04:58:52.163Z,1.60
2019-01-27T05:01:24.479Z,2.20
2019-01-27T05:04:03.991Z,1.33
2019-01-27T05:06:36.749Z,1.83
2019-01-27T05:09:10.302Z,1.43
2019-01-27T05:11:42.205Z,2.17
2019-01-27T05:14:13.802Z,2.40
2019-01-27T05:16:46.148Z,2.10
2019-01-27T05:19:17.728Z,1.70
2019-01-27T05:21:49.466Z,1.43
2019-01-27T05:24:21.071Z,1.30
2019-01-27T05:26:53.015Z,1.50
2019-01-27T05:29:24.660Z,2.63
2019-01-27T05:31:57.012Z,1.87
2019-01-27T05:34:28.599Z,1.30
2019-01-27T05:37:00.262Z,1.40
2019-01-27T05:39:31.965Z,2.83
2019-01-27T05:42:03.723Z,1.50
2019-01-27T05:44:35.350Z,2.87
2019-01-27T05:47:10.397Z,1.43
2019-01-27T05:50:04.584Z,2.10
2019-01-27T05:52:39.004Z,1.40
2019-01-27T05:55:13.244Z,1.50
2019-01-27T05:57:50.418Z,1.30
2019-01-27T06:00:31.723Z,1.60
2019-01-27T06:03:07.525Z,3.20
2019-01-27T06:05:40.741Z,1.80
2019-01-27T06:08:14.363Z,1.70
2019-01-27T06:10:46.428Z,1.60
2019-01-27T06:13:18.256Z,1.37
2019-01-27T06:15:49.856Z,1.87
2019-01-27T06:18:22.213Z,1.20
2019-01-27T06:20:53.842Z,2.80
2019-01-27T06:23:25.464Z,1.70
2019-01-27T06:25:57.148Z,1.30
2019-01-27T06:28:28.815Z,1.33
2019-01-27T06:31:00.568Z,1.50
2019-01-27T06:33:39.020Z,1.40
2019-01-27T06:36:11.752Z,3.60
2019-01-27T06:38:43.397Z,2.03
2019-01-27T06:41:15.167Z,9.50
2019-01-27T06:43:47.442Z,1.57
2019-01-27T06:46:19.267Z,1.60
2019-01-27T06:48:51.429Z,1.90
2019-01-27T06:51:23.617Z,2.53
2019-01-27T06:53:57.861Z,1.50
2019-01-27T06:56:32.804Z,2.43
2019-01-27T06:59:17.293Z,1.50
2019-01-27T07:02:00.799Z,2.07
2019-01-27T07:04:42.753Z,2.10
2019-01-27T07:07:38.952Z,2.83
2019-01-27T07:10:36.713Z,8.00
2019-01-27T07:13:27.066Z,1.70
2019-01-27T07:16:23.100Z,2.27
2019-01-27T07:19:26.962Z,2.07
2019-01-27T07:22:33.093Z,1.80
2019-01-27T07:25:23.527Z,1.83
2019-01-27T07:28:14.641Z,2.50
2019-01-27T07:31:26.818Z,2.33
2019-01-27T07:34:18.831Z,2.47
2019-01-27T07:37:09.298Z,1.30
2019-01-27T07:40:02.856Z,1.80
2019-01-27T07:42:46.441Z,2.70
2019-01-27T07:45:24.006Z,1.57
2019-01-27T07:48:17.675Z,2.00
2019-01-27T07:51:20.180Z,1.97
2019-01-27T07:54:29.429Z,2.60
2019-01-27T07:57:25.538Z,1.60
2019-01-27T08:00:14.915Z,1.83
2019-01-27T08:03:11.784Z,2.67
2019-01-27T08:06:09.921Z,2.43
2019-01-27T08:08:47.780Z,1.50
2019-01-27T08:11:41.344Z,1.40
2019-01-27T08:14:29.515Z,1.20
2019-01-27T08:17:36.106Z,1.70
2019-01-27T08:20:31.763Z,1.50
2019-01-27T08:23:28.591Z,1.50
2019-01-27T08:26:27.990Z,1.50
2019-01-27T08:29:18.429Z,1.77
2019-01-27T08:32:07.642Z,1.60
2019-01-27T08:34:49.498Z,1.80
2019-01-27T08:37:38.266Z,1.60
2019-01-27T08:40:28.010Z,1.40
2019-01-27T08:43:17.572Z,1.40
2019-01-27T08:45:53.961Z,1.80
2019-01-27T08:48:25.934Z,1.33
2019-01-27T08:51:01.538Z,5.77
2019-01-27T08:53:32.307Z,1.50
2019-01-27T08:56:04.179Z,1.80
2019-01-27T08:58:37.033Z,1.40
2019-01-27T09:01:23.173Z,1.53
2019-01-27T09:04:00.631Z,3.30
2019-01-27T09:06:57.183Z,3.03
2019-01-27T09:09:46.797Z,1.80
2019-01-27T09:12:43.569Z,1.50
2019-01-27T09:15:34.237Z,1.30
2019-01-27T09:18:29.071Z,1.43
2019-01-27T09:21:15.754Z,2.37
2019-01-27T09:24:03.767Z,1.60
2019-01-27T09:26:54.596Z,1.93
2019-01-27T09:29:48.257Z,2.33
2019-01-27T09:32:39.162Z,2.23
2019-01-27T09:35:30.337Z,1.50
2019-01-27T09:38:24.983Z,2.00
2019-01-27T09:41:18.928Z,1.67
2019-01-27T09:44:21.857Z,1.60
2019-01-27T09:47:19.784Z,1.67
2019-01-27T09:50:09.877Z,2.17
2019-01-27T09:52:58.261Z,1.60
2019-01-27T09:55:51.771Z,1.83
2019-01-27T09:58:57.650Z,3.10
2019-01-27T10:01:38.005Z,2.37
2019-01-27T10:04:21.787Z,2.43
2019-01-27T10:07:27.721Z,6.50
2019-01-27T10:10:17.293Z,1.70
2019-01-27T10:13:05.906Z,2.30
2019-01-27T10:16:03.684Z,1.93
2019-01-27T10:18:52.989Z,1.83
2019-01-27T10:21:30.570Z,2.50
2019-01-27T10:24:21.020Z,1.93
2019-01-27T10:27:11.821Z,2.00
2019-01-27T10:30:01.257Z,2.43
2019-01-27T10:32:52.143Z,1.70
2019-01-27T10:35:42.892Z,1.60
2019-01-27T10:38:36.271Z,3.23
2019-01-27T10:41:25.338Z,4.10
2019-01-27T10:44:16.591Z,3.17
2019-01-27T10:47:07.998Z,2.13
2019-01-27T10:49:45.409Z,1.87
2019-01-27T10:52:36.769Z,2.47
2019-01-27T10:55:18.775Z,1.83
2019-01-27T10:58:01.868Z,1.50
2019-01-27T11:00:52.362Z,1.67
2019-01-27T11:03:30.804Z,1.40
2019-01-27T11:06:24.630Z,1.80
2019-01-27T11:09:13.966Z,1.73
2019-01-27T11:12:02.480Z,1.63
2019-01-27T11:14:44.639Z,2.27
2019-01-27T11:17:35.402Z,2.00
2019-01-27T11:20:25.825Z,1.93
2019-01-27T11:23:25.648Z,2.10
2019-01-27T11:26:16.270Z,1.80
2019-01-27T11:28:58.725Z,1.73
2019-01-27T11:31:42.050Z,1.50
2019-01-27T11:34:32.254Z,3.23
2019-01-27T11:37:32.210Z,1.30
2019-01-27T11:40:14.601Z,1.97
2019-01-27T11:43:04.729Z,2.17
2019-01-27T11:45:51.987Z,2.50
2019-01-27T11:48:35.878Z,1.60
2019-01-27T11:51:15.823Z,2.27
2019-01-27T11:53:47.659Z,2.10
2019-01-27T11:56:19.824Z,1.77
2019-01-27T11:58:51.773Z,2.33
2019-01-27T12:01:23.653Z,1.53
2019-01-27T12:03:56.867Z,2.43
2019-01-27T12:06:29.707Z,5.53
2019-01-27T12:09:02.743Z,3.87
2019-01-27T12:11:35.107Z,3.50
2019-01-27T12:14:08.027Z,4.57
2019-01-27T12:16:39.795Z,1.70
2019-01-27T12:19:12.745Z,3.47
2019-01-27T12:21:46.257Z,2.27
2019-01-27T12:24:18.098Z,1.30
2019-01-27T12:26:50.991Z,1.30
2019-01-27T12:29:25.601Z,3.43
2019-01-27T12:31:58.476Z,3.80
2019-01-27T12:34:30.651Z,2.00
2019-01-27T12:37:02.506Z,3.33
2019-01-27T12:39:35.350Z,3.10
2019-01-27T12:42:07.123Z,3.30
2019-01-27T12:44:39.156Z,1.87
2019-01-27T12:47:10.909Z,2.67
2019-01-27T12:49:42.611Z,4.10
2019-01-27T12:52:14.430Z,3.93
2019-01-27T12:54:46.181Z,2.30
2019-01-27T12:57:18.631Z,1.93
2019-01-27T12:59:50.723Z,2.67
2019-01-27T13:02:22.592Z,2.80
2019-01-27T13:04:54.361Z,2.20
2019-01-27T13:07:28.095Z,3.00
2019-01-27T13:09:59.976Z,1.60
2019-01-27T13:12:31.752Z,2.47
2019-01-27T13:15:04.094Z,2.70
2019-01-27T13:17:35.992Z,2.87
2019-01-27T13:20:09.340Z,2.00
2019-01-27T13:22:42.273Z,3.00
2019-01-27T13:25:15.933Z,2.07
2019-01-27T13:27:47.839Z,1.63
2019-01-27T13:30:21.620Z,2.93
2019-01-27T13:32:55.229Z,1.70
2019-01-27T13:35:27.193Z,3.30
2019-01-27T13:37:58.894Z,3.00
2019-01-27T13:40:30.987Z,2.33
2019-01-27T13:43:02.719Z,2.27
2019-01-27T13:45:34.431Z,1.60
2019-01-27T13:48:06.512Z,3.13
2019-01-27T13:50:38.635Z,1.87
2019-01-27T13:53:10.335Z,1.30
2019-01-27T13:55:43.664Z,1.77
2019-01-27T13:58:15.325Z,1.70
2019-01-27T14:00:47.147Z,2.60
2019-01-27T14:03:19.097Z,2.57
2019-01-27T14:05:51.971Z,2.00
2019-01-27T14:08:24.050Z,2.70
2019-01-27T14:10:55.837Z,2.53
2019-01-27T14:13:28.014Z,2.20
2019-01-27T14:15:59.882Z,1.93
2019-01-27T14:18:32.034Z,1.30
2019-01-27T14:21:08.033Z,3.73
2019-01-27T14:23:40.076Z,2.00
2019-01-27T14:26:11.774Z,1.77
2019-01-27T14:28:43.559Z,1.60
2019-01-27T14:31:15.245Z,5.10
2019-01-27T14:33:48.902Z,2.73
2019-01-27T14:36:21.016Z,4.37
2019-01-27T14:38:52.856Z,2.00
2019-01-27T14:41:26.614Z,2.00
2019-01-27T14:44:00.024Z,1.90
2019-01-27T14:46:31.789Z,2.70
2019-01-27T14:49:03.748Z,1.70
2019-01-27T14:51:35.758Z,2.17
2019-01-27T14:54:08.738Z,2.20
2019-01-27T14:56:40.694Z,3.30
2019-01-27T14:59:12.774Z,2.40
2019-01-27T15:01:44.893Z,3.53
2019-01-27T15:04:23.388Z,3.57
2019-01-27T15:06:58.807Z,5.77
2019-01-27T15:09:33.680Z,4.20
2019-01-27T15:12:09.799Z,5.43
2019-01-27T15:14:52.895Z,4.00
2019-01-27T15:17:26.996Z,6.63
2019-01-27T15:19:58.716Z,3.07
2019-01-27T15:22:30.686Z,2.07
2019-01-27T15:25:02.397Z,4.40
2019-01-27T15:27:34.157Z,2.33
2019-01-27T15:30:09.303Z,2.97
2019-01-27T15:32:41.598Z,2.70
2019-01-27T15:35:13.615Z,3.30
2019-01-27T15:37:46.298Z,3.03
2019-01-27T15:40:18.134Z,1.80
2019-01-27T15:42:51.205Z,3.10
2019-01-27T15:45:30.880Z,3.60
2019-01-27T15:48:03.779Z,3.20
2019-01-27T15:50:35.679Z,4.50
2019-01-27T15:53:08.895Z,1.57
2019-01-27T15:55:41.206Z,1.60
2019-01-27T16:02:55.636Z,2.30
2019-01-27T16:05:27.763Z,4.53
2019-01-27T16:07:59.621Z,1.57
2019-01-27T16:10:31.373Z,2.70
2019-01-27T16:13:04.519Z,2.10
2019-01-27T16:15:36.885Z,2.87
2019-01-27T16:18:08.989Z,7.03
2019-01-27T16:20:41.086Z,3.37
2019-01-27T16:23:37.856Z,2.20
2019-01-27T16:26:55.260Z,4.77
2019-01-27T16:29:56.528Z,2.97
2019-01-27T16:32:40.920Z,3.03
2019-01-27T16:35:20.778Z,3.03
2019-01-27T16:37:52.572Z,3.10
2019-01-27T16:40:24.723Z,3.80
2019-01-27T16:42:56.789Z,5.90
2019-01-27T16:45:30.333Z,3.67
2019-01-27T16:48:02.038Z,3.87
2019-01-27T16:50:34.146Z,3.63
2019-01-27T16:53:07.063Z,8.70
2019-01-27T16:55:39.071Z,5.70
2019-01-27T16:58:13.830Z,7.40
2019-01-27T17:00:45.898Z,3.40
2019-01-27T17:03:17.886Z,2.30
2019-01-27T17:05:49.961Z,5.90
2019-01-27T17:08:23.151Z,5.70
2019-01-27T17:10:56.087Z,6.20
2019-01-27T17:13:28.022Z,6.30
2019-01-27T17:15:59.997Z,11.47
2019-01-27T17:18:33.566Z,15.87
2019-01-27T17:21:05.562Z,14.50
2019-01-27T17:23:37.264Z,12.30
2019-01-27T17:26:09.062Z,8.93
2019-01-27T17:28:42.182Z,4.80
2019-01-27T17:31:14.005Z,8.30
2019-01-27T17:33:46.147Z,4.67
2019-01-27T17:36:17.988Z,4.50
2019-01-27T17:38:49.801Z,5.07
2019-01-27T17:41:21.804Z,4.30
2019-01-27T17:43:53.950Z,4.10
2019-01-27T17:46:25.927Z,4.23
2019-01-27T17:48:57.517Z,4.03
2019-01-27T17:51:30.604Z,3.00
2019-01-27T17:54:04.643Z,2.97
2019-01-27T17:56:36.474Z,2.80
2019-01-27T17:59:23.975Z,2.03
2019-01-27T18:02:13.279Z,1.50
2019-01-27T18:04:50.508Z,3.43
2019-01-27T18:07:49.078Z,2.00
2019-01-27T18:10:43.708Z,3.63
2019-01-27T18:13:36.598Z,1.90
2019-01-27T18:16:13.271Z,1.90
2019-01-27T18:18:45.547Z,1.37
2019-01-27T18:21:17.391Z,1.47
2019-01-27T18:23:49.408Z,1.20
2019-01-27T18:26:21.183Z,1.57
2019-01-27T18:28:53.125Z,1.60
2019-01-27T18:31:27.680Z,1.70
2019-01-27T18:33:59.663Z,1.50
2019-01-27T18:36:31.533Z,1.40
2019-01-27T18:39:05.306Z,1.50
2019-01-27T18:41:37.015Z,2.50
2019-01-27T18:44:08.929Z,2.13
2019-01-27T18:46:40.736Z,2.33
2019-01-27T18:49:12.806Z,1.57
2019-01-27T18:51:44.608Z,1.40
2019-01-27T18:54:54.834Z,1.30
2019-01-27T18:57:45.676Z,1.33
2019-01-27T19:00:31.433Z,1.90
2019-01-27T19:03:11.111Z,1.57
2019-01-27T19:06:02.240Z,2.67
2019-01-27T19:08:55.750Z,1.40
2019-01-27T19:11:55.674Z,1.90
2019-01-27T19:14:58.490Z,2.00
2019-01-27T19:17:52.439Z,2.40
2019-01-27T19:20:32.194Z,2.00
2019-01-27T19:23:12.377Z,1.90
2019-01-27T19:26:12.120Z,2.20
2019-01-27T19:29:08.482Z,2.00
2019-01-27T19:32:04.764Z,2.57
2019-01-27T19:34:46.230Z,2.20
2019-01-27T19:37:26.175Z,2.13
2019-01-27T19:40:15.380Z,2.50
2019-01-27T19:43:21.738Z,1.90
2019-01-27T19:46:01.106Z,1.37
2019-01-27T19:49:00.634Z,1.70
2019-01-27T19:51:54.988Z,1.90
2019-01-27T19:54:44.720Z,2.23
2019-01-27T19:57:34.059Z,1.83
2019-01-27T20:00:17.253Z,1.50
2019-01-27T20:02:55.771Z,1.40
2019-01-27T20:05:49.284Z,2.17
2019-01-27T20:08:38.262Z,1.40
2019-01-27T20:11:34.915Z,1.77
2019-01-27T20:14:21.735Z,1.50
2019-01-27T20:17:07.998Z,1.30
2019-01-27T20:25:36.573Z,1.30
2019-01-27T20:28:27.358Z,1.23
2019-01-27T20:31:36.221Z,2.27
2019-01-27T20:34:27.101Z,1.30
2019-01-27T20:37:17.117Z,1.50
2019-01-27T20:40:06.310Z,1.30
2019-01-27T20:42:59.879Z,1.43
2019-01-27T20:45:40.445Z,1.10
2019-01-27T20:48:46.201Z,1.40
2019-01-27T20:51:47.567Z,1.50
2019-01-27T20:54:57.359Z,1.70
2019-01-27T20:57:58.463Z,1.60
2019-01-27T21:00:39.847Z,1.83
2019-01-27T21:03:39.798Z,1.50
2019-01-27T21:06:36.341Z,1.20
2019-01-27T21:09:28.437Z,1.70
2019-01-27T21:12:18.492Z,2.00
2019-01-27T21:15:06.483Z,3.60
2019-01-27T21:18:01.429Z,3.50
2019-01-27T21:20:33.383Z,1.93
2019-01-27T21:23:05.360Z,1.77
2019-01-27T21:25:37.140Z,1.57
2019-01-27T21:28:09.619Z,3.20
2019-01-27T21:30:42.682Z,2.17
2019-01-27T21:33:15.510Z,3.30
2019-01-27T21:35:48.971Z,1.50
2019-01-27T21:38:26.721Z,2.10
2019-01-27T21:40:58.720Z,1.70
2019-01-27T21:43:30.760Z,1.77
2019-01-27T21:46:02.443Z,1.80
2019-01-27T21:48:34.289Z,2.03
2019-01-27T21:51:06.141Z,2.03
2019-01-27T21:53:38.059Z,2.57
2019-01-27T21:56:10.927Z,1.93
2019-01-27T21:58:42.980Z,1.70
2019-01-27T22:01:15.024Z,1.90
2019-01-27T22:03:46.827Z,2.33
2019-01-27T22:06:18.536Z,1.60
2019-01-27T22:08:50.448Z,2.00
2019-01-27T22:11:22.559Z,2.00
2019-01-27T22:13:54.600Z,2.47
2019-01-27T22:16:27.920Z,2.20
2019-01-27T22:18:57.210Z,2.00
2019-01-27T22:21:28.950Z,1.73
2019-01-27T22:24:00.650Z,1.80
2019-01-27T22:26:32.463Z,3.30
2019-01-27T22:29:04.289Z,3.77
2019-01-27T22:31:36.107Z,3.67
2019-01-27T22:34:07.915Z,2.87
2019-01-27T22:36:40.323Z,2.57
2019-01-27T22:39:12.102Z,2.50
2019-01-27T22:41:43.927Z,4.80
2019-01-27T22:44:18.307Z,3.57
2019-01-27T22:46:50.133Z,2.90
2019-01-27T22:49:21.794Z,2.30
2019-01-27T22:51:54.556Z,3.60
2019-01-27T22:54:26.238Z,2.33
2019-01-27T22:56:58.217Z,6.40
2019-01-27T22:59:29.905Z,5.23
2019-01-27T23:02:01.811Z,3.73
2019-01-27T23:04:34.977Z,3.67
2019-01-27T23:07:06.964Z,3.67
2019-01-27T23:09:39.031Z,6.53
2019-01-27T23:12:11.870Z,3.00
2019-01-27T23:14:44.236Z,2.80
2019-01-27T23:17:16.083Z,3.77
2019-01-27T23:19:47.801Z,3.37
2019-01-27T23:22:19.534Z,2.67
2019-01-27T23:24:51.168Z,5.13
2019-01-27T23:27:23.120Z,3.10
2019-01-27T23:29:55.967Z,4.27
2019-01-27T23:32:28.202Z,2.43
2019-01-27T23:35:00.475Z,3.23
2019-01-27T23:37:32.159Z,2.83
2019-01-27T23:40:04.084Z,2.97
2019-01-27T23:42:35.823Z,6.70
2019-01-27T23:45:09.076Z,4.90
2019-01-27T23:47:43.438Z,5.30
2019-01-27T23:50:15.308Z,4.30
2019-01-27T23:52:47.024Z,4.47
2019-01-27T23:55:18.743Z,3.17
2019-01-27T23:57:50.461Z,3.03
